sensor_id;sensor_type;location;lat;lon;timestamp;P1;durP1;ratioP1;P2;durP2;ratioP2
75496;SDS011;64074;47.540;19.072;2024-03-08T00:02:42;21.98;;;10.32;;
75496;SDS011;64074;47.540;19.072;2024-03-08T00:06:03;22.80;;;10.85;;
75496;SDS011;64074;47.540;19.072;2024-03-08T00:09:22;26.35;;;11.48;;
75496;SDS011;64074;47.540;19.072;2024-03-08T00:12:45;21.95;;;10.60;;
75496;SDS011;64074;47.540;19.072;2024-03-08T00:15:50;21.77;;;10.57;;
75496;SDS011;64074;47.540;19.072;2024-03-08T00:18:54;22.83;;;10.23;;
75496;SDS011;64074;47.540;19.072;2024-03-08T00:22:03;23.88;;;11.25;;
75496;SDS011;64074;47.540;19.072;2024-03-08T00:25:09;22.20;;;11.00;;
75496;SDS011;64074;47.540;19.072;2024-03-08T00:28:16;23.58;;;10.68;;
75496;SDS011;64074;47.540;19.072;2024-03-08T00:31:24;25.37;;;11.37;;
75496;SDS011;64074;47.540;19.072;2024-03-08T00:34:28;21.65;;;11.07;;
75496;SDS011;64074;47.540;19.072;2024-03-08T00:37:38;24.40;;;10.85;;
75496;SDS011;64074;47.540;19.072;2024-03-08T00:40:56;23.70;;;11.23;;
75496;SDS011;64074;47.540;19.072;2024-03-08T00:44:17;23.88;;;10.82;;
75496;SDS011;64074;47.540;19.072;2024-03-08T00:47:38;21.07;;;10.40;;
75496;SDS011;64074;47.540;19.072;2024-03-08T00:50:48;26.00;;;11.25;;
75496;SDS011;64074;47.540;19.072;2024-03-08T00:54:11;24.77;;;11.85;;
75496;SDS011;64074;47.540;19.072;2024-03-08T00:57:40;24.90;;;10.45;;
75496;SDS011;64074;47.540;19.072;2024-03-08T01:01:08;23.65;;;10.63;;
75496;SDS011;64074;47.540;19.072;2024-03-08T01:04:24;23.67;;;10.57;;
75496;SDS011;64074;47.540;19.072;2024-03-08T01:07:34;24.55;;;11.10;;
75496;SDS011;64074;47.540;19.072;2024-03-08T01:10:38;24.85;;;12.13;;
75496;SDS011;64074;47.540;19.072;2024-03-08T01:13:46;24.67;;;11.18;;
75496;SDS011;64074;47.540;19.072;2024-03-08T01:16:56;25.73;;;12.35;;
75496;SDS011;64074;47.540;19.072;2024-03-08T01:20:12;24.50;;;11.63;;
75496;SDS011;64074;47.540;19.072;2024-03-08T01:23:47;24.25;;;11.40;;
75496;SDS011;64074;47.540;19.072;2024-03-08T01:27:08;22.92;;;11.23;;
75496;SDS011;64074;47.540;19.072;2024-03-08T01:30:29;23.92;;;11.50;;
75496;SDS011;64074;47.540;19.072;2024-03-08T01:33:41;23.75;;;11.48;;
75496;SDS011;64074;47.540;19.072;2024-03-08T01:37:11;25.90;;;11.70;;
75496;SDS011;64074;47.540;19.072;2024-03-08T01:40:40;28.58;;;11.88;;
75496;SDS011;64074;47.540;19.072;2024-03-08T01:43:50;24.08;;;10.73;;
75496;SDS011;64074;47.540;19.072;2024-03-08T01:47:06;26.42;;;12.02;;
75496;SDS011;64074;47.540;19.072;2024-03-08T01:50:29;24.88;;;11.85;;
75496;SDS011;64074;47.540;19.072;2024-03-08T01:54:04;27.10;;;11.60;;
75496;SDS011;64074;47.540;19.072;2024-03-08T01:57:25;26.50;;;11.80;;
75496;SDS011;64074;47.540;19.072;2024-03-08T02:00:44;26.98;;;12.10;;
75496;SDS011;64074;47.540;19.072;2024-03-08T02:03:55;28.17;;;12.52;;
75496;SDS011;64074;47.540;19.072;2024-03-08T02:06:59;27.83;;;13.07;;
75496;SDS011;64074;47.540;19.072;2024-03-08T02:10:06;30.93;;;12.90;;
75496;SDS011;64074;47.540;19.072;2024-03-08T02:13:17;26.33;;;12.73;;
75496;SDS011;64074;47.540;19.072;2024-03-08T02:16:24;28.75;;;13.55;;
75496;SDS011;64074;47.540;19.072;2024-03-08T02:19:33;31.45;;;13.10;;
75496;SDS011;64074;47.540;19.072;2024-03-08T02:22:47;26.30;;;12.50;;
75496;SDS011;64074;47.540;19.072;2024-03-08T02:26:08;30.23;;;12.87;;
75496;SDS011;64074;47.540;19.072;2024-03-08T02:29:18;27.67;;;12.68;;
75496;SDS011;64074;47.540;19.072;2024-03-08T02:32:46;30.02;;;13.20;;
75496;SDS011;64074;47.540;19.072;2024-03-08T02:36:14;29.52;;;13.05;;
75496;SDS011;64074;47.540;19.072;2024-03-08T02:39:35;33.22;;;14.23;;
75496;SDS011;64074;47.540;19.072;2024-03-08T02:42:56;33.07;;;14.30;;
75496;SDS011;64074;47.540;19.072;2024-03-08T02:46:20;31.23;;;13.50;;
75496;SDS011;64074;47.540;19.072;2024-03-08T02:49:35;32.67;;;13.60;;
75496;SDS011;64074;47.540;19.072;2024-03-08T02:52:46;32.40;;;14.60;;
75496;SDS011;64074;47.540;19.072;2024-03-08T02:56:21;35.63;;;14.48;;
75496;SDS011;64074;47.540;19.072;2024-03-08T02:59:36;36.00;;;14.10;;
75496;SDS011;64074;47.540;19.072;2024-03-08T03:02:42;34.88;;;14.90;;
75496;SDS011;64074;47.540;19.072;2024-03-08T03:05:52;35.25;;;14.30;;
75496;SDS011;64074;47.540;19.072;2024-03-08T03:09:05;36.28;;;15.23;;
75496;SDS011;64074;47.540;19.072;2024-03-08T03:12:30;37.55;;;15.02;;
75496;SDS011;64074;47.540;19.072;2024-03-08T03:15:54;36.60;;;14.83;;
75496;SDS011;64074;47.540;19.072;2024-03-08T03:19:07;38.83;;;15.65;;
75496;SDS011;64074;47.540;19.072;2024-03-08T03:22:30;37.03;;;15.68;;
75496;SDS011;64074;47.540;19.072;2024-03-08T03:26:01;38.15;;;15.20;;
75496;SDS011;64074;47.540;19.072;2024-03-08T03:29:12;39.00;;;15.85;;
75496;SDS011;64074;47.540;19.072;2024-03-08T03:32:36;42.00;;;16.47;;
75496;SDS011;64074;47.540;19.072;2024-03-08T03:35:56;40.40;;;15.45;;
75496;SDS011;64074;47.540;19.072;2024-03-08T03:39:16;40.60;;;17.30;;
75496;SDS011;64074;47.540;19.072;2024-03-08T03:42:43;41.35;;;16.05;;
75496;SDS011;64074;47.540;19.072;2024-03-08T03:45:58;38.15;;;16.25;;
75496;SDS011;64074;47.540;19.072;2024-03-08T03:49:02;41.27;;;16.47;;
75496;SDS011;64074;47.540;19.072;2024-03-08T03:52:08;42.55;;;17.33;;
75496;SDS011;64074;47.540;19.072;2024-03-08T03:55:19;41.85;;;16.45;;
75496;SDS011;64074;47.540;19.072;2024-03-08T03:58:44;37.88;;;16.02;;
75496;SDS011;64074;47.540;19.072;2024-03-08T04:01:59;42.38;;;16.63;;
75496;SDS011;64074;47.540;19.072;2024-03-08T04:05:23;40.97;;;15.93;;
75496;SDS011;64074;47.540;19.072;2024-03-08T04:08:36;42.28;;;16.40;;
75496;SDS011;64074;47.540;19.072;2024-03-08T04:11:56;49.88;;;16.63;;
75496;SDS011;64074;47.540;19.072;2024-03-08T04:15:16;39.17;;;16.00;;
75496;SDS011;64074;47.540;19.072;2024-03-08T04:18:29;40.08;;;16.27;;
75496;SDS011;64074;47.540;19.072;2024-03-08T04:21:38;40.03;;;15.80;;
75496;SDS011;64074;47.540;19.072;2024-03-08T04:24:47;43.90;;;16.13;;
75496;SDS011;64074;47.540;19.072;2024-03-08T04:28:01;41.03;;;15.63;;
75496;SDS011;64074;47.540;19.072;2024-03-08T04:31:11;45.88;;;16.35;;
75496;SDS011;64074;47.540;19.072;2024-03-08T04:34:28;43.08;;;17.20;;
75496;SDS011;64074;47.540;19.072;2024-03-08T04:37:38;39.03;;;16.10;;
75496;SDS011;64074;47.540;19.072;2024-03-08T04:40:46;42.58;;;16.92;;
75496;SDS011;64074;47.540;19.072;2024-03-08T04:43:56;40.63;;;16.63;;
75496;SDS011;64074;47.540;19.072;2024-03-08T04:47:05;42.90;;;16.75;;
75496;SDS011;64074;47.540;19.072;2024-03-08T04:50:15;42.13;;;16.35;;
75496;SDS011;64074;47.540;19.072;2024-03-08T04:53:29;40.53;;;17.03;;
75496;SDS011;64074;47.540;19.072;2024-03-08T04:56:50;45.15;;;17.65;;
75496;SDS011;64074;47.540;19.072;2024-03-08T05:00:16;42.38;;;16.30;;
75496;SDS011;64074;47.540;19.072;2024-03-08T05:03:36;41.50;;;16.73;;
75496;SDS011;64074;47.540;19.072;2024-03-08T05:06:57;43.38;;;16.85;;
75496;SDS011;64074;47.540;19.072;2024-03-08T05:10:11;42.23;;;16.80;;
75496;SDS011;64074;47.540;19.072;2024-03-08T05:13:15;41.08;;;17.40;;
75496;SDS011;64074;47.540;19.072;2024-03-08T05:16:26;44.10;;;17.20;;
75496;SDS011;64074;47.540;19.072;2024-03-08T05:19:37;43.22;;;16.17;;
75496;SDS011;64074;47.540;19.072;2024-03-08T05:23:07;43.53;;;16.63;;
75496;SDS011;64074;47.540;19.072;2024-03-08T05:26:18;42.13;;;16.73;;
75496;SDS011;64074;47.540;19.072;2024-03-08T05:29:42;39.17;;;16.23;;
75496;SDS011;64074;47.540;19.072;2024-03-08T05:33:01;41.28;;;17.17;;
75496;SDS011;64074;47.540;19.072;2024-03-08T05:36:21;52.75;;;21.88;;
75496;SDS011;64074;47.540;19.072;2024-03-08T05:39:51;46.25;;;17.38;;
75496;SDS011;64074;47.540;19.072;2024-03-08T05:43:07;47.70;;;17.13;;
75496;SDS011;64074;47.540;19.072;2024-03-08T05:46:39;44.80;;;16.55;;
75496;SDS011;64074;47.540;19.072;2024-03-08T05:49:54;42.28;;;16.67;;
75496;SDS011;64074;47.540;19.072;2024-03-08T05:53:04;44.05;;;15.93;;
75496;SDS011;64074;47.540;19.072;2024-03-08T05:56:27;43.95;;;17.17;;
75496;SDS011;64074;47.540;19.072;2024-03-08T05:59:37;46.67;;;17.00;;
75496;SDS011;64074;47.540;19.072;2024-03-08T06:02:42;47.67;;;17.85;;
75496;SDS011;64074;47.540;19.072;2024-03-08T06:05:49;43.67;;;17.60;;
75496;SDS011;64074;47.540;19.072;2024-03-08T06:08:59;44.25;;;17.13;;
75496;SDS011;64074;47.540;19.072;2024-03-08T06:12:23;45.97;;;19.25;;
75496;SDS011;64074;47.540;19.072;2024-03-08T06:15:38;46.97;;;17.93;;
75496;SDS011;64074;47.540;19.072;2024-03-08T06:18:52;45.05;;;17.70;;
75496;SDS011;64074;47.540;19.072;2024-03-08T06:22:06;42.83;;;17.88;;
75496;SDS011;64074;47.540;19.072;2024-03-08T06:25:16;42.90;;;18.17;;
75496;SDS011;64074;47.540;19.072;2024-03-08T06:28:23;41.75;;;17.67;;
75496;SDS011;64074;47.540;19.072;2024-03-08T06:31:35;43.07;;;17.10;;
75496;SDS011;64074;47.540;19.072;2024-03-08T06:35:12;46.13;;;17.42;;
75496;SDS011;64074;47.540;19.072;2024-03-08T06:38:35;43.08;;;17.42;;
75496;SDS011;64074;47.540;19.072;2024-03-08T06:42:13;44.63;;;17.38;;
75496;SDS011;64074;47.540;19.072;2024-03-08T06:45:27;44.25;;;17.67;;
75496;SDS011;64074;47.540;19.072;2024-03-08T06:48:44;45.33;;;17.13;;
75496;SDS011;64074;47.540;19.072;2024-03-08T06:52:04;43.72;;;17.75;;
75496;SDS011;64074;47.540;19.072;2024-03-08T06:55:21;45.25;;;17.95;;
75496;SDS011;64074;47.540;19.072;2024-03-08T06:58:54;44.30;;;18.10;;
75496;SDS011;64074;47.540;19.072;2024-03-08T07:02:06;40.50;;;16.90;;
75496;SDS011;64074;47.540;19.072;2024-03-08T07:05:20;40.83;;;16.80;;
75496;SDS011;64074;47.540;19.072;2024-03-08T07:08:46;40.90;;;16.75;;
75496;SDS011;64074;47.540;19.072;2024-03-08T07:12:15;46.72;;;17.55;;
75496;SDS011;64074;47.540;19.072;2024-03-08T07:15:20;44.33;;;16.73;;
75496;SDS011;64074;47.540;19.072;2024-03-08T07:18:27;43.83;;;17.38;;
75496;SDS011;64074;47.540;19.072;2024-03-08T07:21:38;39.50;;;17.17;;
75496;SDS011;64074;47.540;19.072;2024-03-08T07:24:48;41.25;;;16.88;;
75496;SDS011;64074;47.540;19.072;2024-03-08T07:28:26;41.00;;;16.55;;
75496;SDS011;64074;47.540;19.072;2024-03-08T07:31:36;44.90;;;17.90;;
75496;SDS011;64074;47.540;19.072;2024-03-08T07:35:23;40.40;;;16.77;;
75496;SDS011;64074;47.540;19.072;2024-03-08T07:38:38;40.57;;;16.10;;
75496;SDS011;64074;47.540;19.072;2024-03-08T07:41:53;44.75;;;17.42;;
75496;SDS011;64074;47.540;19.072;2024-03-08T07:45:07;44.58;;;17.20;;
75496;SDS011;64074;47.540;19.072;2024-03-08T07:48:20;42.60;;;16.95;;
75496;SDS011;64074;47.540;19.072;2024-03-08T07:51:48;46.33;;;17.55;;
75496;SDS011;64074;47.540;19.072;2024-03-08T07:54:59;43.87;;;17.10;;
75496;SDS011;64074;47.540;19.072;2024-03-08T07:58:12;41.28;;;16.75;;
75496;SDS011;64074;47.540;19.072;2024-03-08T08:01:31;43.40;;;16.73;;
75496;SDS011;64074;47.540;19.072;2024-03-08T08:05:01;51.00;;;18.58;;
75496;SDS011;64074;47.540;19.072;2024-03-08T08:08:13;47.35;;;18.60;;
75496;SDS011;64074;47.540;19.072;2024-03-08T08:11:33;45.83;;;17.00;;
75496;SDS011;64074;47.540;19.072;2024-03-08T08:15:04;45.10;;;17.00;;
75496;SDS011;64074;47.540;19.072;2024-03-08T08:18:14;49.72;;;18.75;;
75496;SDS011;64074;47.540;19.072;2024-03-08T08:21:23;46.97;;;17.58;;
75496;SDS011;64074;47.540;19.072;2024-03-08T08:24:36;48.15;;;18.85;;
75496;SDS011;64074;47.540;19.072;2024-03-08T08:27:51;55.57;;;18.30;;
75496;SDS011;64074;47.540;19.072;2024-03-08T08:31:08;43.85;;;17.20;;
75496;SDS011;64074;47.540;19.072;2024-03-08T08:34:25;45.05;;;18.00;;
75496;SDS011;64074;47.540;19.072;2024-03-08T08:37:31;45.35;;;17.40;;
75496;SDS011;64074;47.540;19.072;2024-03-08T08:40:38;49.25;;;17.45;;
75496;SDS011;64074;47.540;19.072;2024-03-08T08:43:52;50.37;;;18.07;;
75496;SDS011;64074;47.540;19.072;2024-03-08T08:47:22;47.53;;;17.63;;
75496;SDS011;64074;47.540;19.072;2024-03-08T08:50:44;50.13;;;17.48;;
75496;SDS011;64074;47.540;19.072;2024-03-08T08:53:50;46.30;;;17.05;;
75496;SDS011;64074;47.540;19.072;2024-03-08T08:57:02;52.50;;;19.45;;
75496;SDS011;64074;47.540;19.072;2024-03-08T09:00:21;43.90;;;17.70;;
75496;SDS011;64074;47.540;19.072;2024-03-08T09:03:34;48.20;;;18.33;;
75496;SDS011;64074;47.540;19.072;2024-03-08T09:06:42;50.50;;;18.40;;
75496;SDS011;64074;47.540;19.072;2024-03-08T09:09:54;53.42;;;21.60;;
75496;SDS011;64074;47.540;19.072;2024-03-08T09:13:31;51.65;;;19.10;;
75496;SDS011;64074;47.540;19.072;2024-03-08T09:16:43;53.43;;;17.53;;
75496;SDS011;64074;47.540;19.072;2024-03-08T09:19:48;46.97;;;18.75;;
75496;SDS011;64074;47.540;19.072;2024-03-08T09:22:58;49.33;;;18.63;;
75496;SDS011;64074;47.540;19.072;2024-03-08T09:26:22;45.53;;;17.33;;
75496;SDS011;64074;47.540;19.072;2024-03-08T09:29:49;54.47;;;19.75;;
75496;SDS011;64074;47.540;19.072;2024-03-08T09:33:07;51.37;;;18.13;;
75496;SDS011;64074;47.540;19.072;2024-03-08T09:36:49;44.30;;;17.73;;
75496;SDS011;64074;47.540;19.072;2024-03-08T09:40:17;49.70;;;19.00;;
75496;SDS011;64074;47.540;19.072;2024-03-08T09:43:50;48.05;;;17.95;;
75496;SDS011;64074;47.540;19.072;2024-03-08T09:47:02;44.33;;;17.08;;
75496;SDS011;64074;47.540;19.072;2024-03-08T09:50:21;49.83;;;18.33;;
75496;SDS011;64074;47.540;19.072;2024-03-08T09:53:41;52.95;;;18.85;;
75496;SDS011;64074;47.540;19.072;2024-03-08T10:00:35;44.83;;;17.85;;
75496;SDS011;64074;47.540;19.072;2024-03-08T10:03:47;49.83;;;18.25;;
75496;SDS011;64074;47.540;19.072;2024-03-08T10:07:00;43.37;;;17.90;;
75496;SDS011;64074;47.540;19.072;2024-03-08T10:10:13;45.28;;;18.05;;
75496;SDS011;64074;47.540;19.072;2024-03-08T10:13:20;51.08;;;19.58;;
75496;SDS011;64074;47.540;19.072;2024-03-08T10:16:27;43.13;;;17.15;;
75496;SDS011;64074;47.540;19.072;2024-03-08T10:19:49;43.67;;;16.58;;
75496;SDS011;64074;47.540;19.072;2024-03-08T10:23:03;44.70;;;16.97;;
75496;SDS011;64074;47.540;19.072;2024-03-08T10:26:21;43.22;;;17.27;;
75496;SDS011;64074;47.540;19.072;2024-03-08T10:29:35;45.78;;;17.40;;
75496;SDS011;64074;47.540;19.072;2024-03-08T10:32:47;46.25;;;18.02;;
75496;SDS011;64074;47.540;19.072;2024-03-08T10:36:01;43.63;;;17.20;;
75496;SDS011;64074;47.540;19.072;2024-03-08T10:39:25;44.43;;;16.87;;
75496;SDS011;64074;47.540;19.072;2024-03-08T10:42:46;43.95;;;17.35;;
75496;SDS011;64074;47.540;19.072;2024-03-08T10:46:05;44.85;;;16.90;;
75496;SDS011;64074;47.540;19.072;2024-03-08T10:49:49;37.65;;;15.82;;
75496;SDS011;64074;47.540;19.072;2024-03-08T10:53:13;38.72;;;15.80;;
75496;SDS011;64074;47.540;19.072;2024-03-08T10:56:25;35.90;;;16.07;;
75496;SDS011;64074;47.540;19.072;2024-03-08T10:59:34;39.13;;;16.00;;
75496;SDS011;64074;47.540;19.072;2024-03-08T11:02:47;36.83;;;16.05;;
75496;SDS011;64074;47.540;19.072;2024-03-08T11:05:53;36.13;;;15.82;;
75496;SDS011;64074;47.540;19.072;2024-03-08T11:09:01;42.60;;;17.45;;
75496;SDS011;64074;47.540;19.072;2024-03-08T11:12:26;33.60;;;15.20;;
75496;SDS011;64074;47.540;19.072;2024-03-08T11:15:47;38.03;;;16.52;;
75496;SDS011;64074;47.540;19.072;2024-03-08T11:18:59;37.10;;;15.05;;
75496;SDS011;64074;47.540;19.072;2024-03-08T11:22:21;37.08;;;15.40;;
75496;SDS011;64074;47.540;19.072;2024-03-08T11:25:37;39.22;;;15.75;;
75496;SDS011;64074;47.540;19.072;2024-03-08T11:28:49;38.40;;;16.23;;
75496;SDS011;64074;47.540;19.072;2024-03-08T11:32:14;38.13;;;15.68;;
75496;SDS011;64074;47.540;19.072;2024-03-08T11:35:22;34.42;;;15.57;;
75496;SDS011;64074;47.540;19.072;2024-03-08T11:38:33;39.35;;;16.20;;
75496;SDS011;64074;47.540;19.072;2024-03-08T11:59:49;43.08;;;17.52;;
75496;SDS011;64074;47.540;19.072;2024-03-08T12:03:06;42.72;;;17.25;;
75496;SDS011;64074;47.540;19.072;2024-03-08T12:06:24;37.03;;;16.50;;
75496;SDS011;64074;47.540;19.072;2024-03-08T12:13:53;37.75;;;16.48;;
75496;SDS011;64074;47.540;19.072;2024-03-08T12:17:25;39.22;;;16.23;;
75496;SDS011;64074;47.540;19.072;2024-03-08T12:20:38;37.67;;;17.52;;
75496;SDS011;64074;47.540;19.072;2024-03-08T12:24:04;38.40;;;17.53;;
75496;SDS011;64074;47.540;19.072;2024-03-08T12:27:21;41.63;;;17.52;;
75496;SDS011;64074;47.540;19.072;2024-03-08T12:30:49;41.38;;;17.33;;
75496;SDS011;64074;47.540;19.072;2024-03-08T12:34:23;39.20;;;18.20;;
75496;SDS011;64074;47.540;19.072;2024-03-08T12:37:33;41.42;;;18.00;;
75496;SDS011;64074;47.540;19.072;2024-03-08T12:40:44;42.83;;;17.53;;
75496;SDS011;64074;47.540;19.072;2024-03-08T12:43:58;36.85;;;16.88;;
75496;SDS011;64074;47.540;19.072;2024-03-08T12:47:12;35.58;;;16.95;;
75496;SDS011;64074;47.540;19.072;2024-03-08T12:50:43;33.03;;;15.15;;
75496;SDS011;64074;47.540;19.072;2024-03-08T12:53:55;36.45;;;17.75;;
75496;SDS011;64074;47.540;19.072;2024-03-08T12:57:07;39.87;;;17.03;;
75496;SDS011;64074;47.540;19.072;2024-03-08T13:00:27;33.50;;;15.80;;
75496;SDS011;64074;47.540;19.072;2024-03-08T13:03:35;32.88;;;17.30;;
75496;SDS011;64074;47.540;19.072;2024-03-08T13:06:45;33.53;;;15.45;;
75496;SDS011;64074;47.540;19.072;2024-03-08T13:09:58;32.00;;;14.95;;
75496;SDS011;64074;47.540;19.072;2024-03-08T13:13:10;29.03;;;14.73;;
75496;SDS011;64074;47.540;19.072;2024-03-08T13:16:24;28.65;;;14.35;;
75496;SDS011;64074;47.540;19.072;2024-03-08T13:19:39;28.73;;;14.32;;
75496;SDS011;64074;47.540;19.072;2024-03-08T13:22:49;30.60;;;14.27;;
75496;SDS011;64074;47.540;19.072;2024-03-08T13:25:59;31.70;;;14.68;;
75496;SDS011;64074;47.540;19.072;2024-03-08T13:29:07;37.10;;;16.47;;
75496;SDS011;64074;47.540;19.072;2024-03-08T13:32:20;37.15;;;15.93;;
75496;SDS011;64074;47.540;19.072;2024-03-08T13:35:26;37.97;;;17.10;;
75496;SDS011;64074;47.540;19.072;2024-03-08T13:38:39;42.22;;;17.88;;
75496;SDS011;64074;47.540;19.072;2024-03-08T13:42:01;37.08;;;16.58;;
75496;SDS011;64074;47.540;19.072;2024-03-08T13:45:44;38.80;;;18.00;;
75496;SDS011;64074;47.540;19.072;2024-03-08T13:49:04;35.42;;;16.23;;
75496;SDS011;64074;47.540;19.072;2024-03-08T13:52:20;40.45;;;16.60;;
75496;SDS011;64074;47.540;19.072;2024-03-08T13:55:41;37.08;;;15.90;;
75496;SDS011;64074;47.540;19.072;2024-03-08T13:58:55;36.28;;;15.70;;
75496;SDS011;64074;47.540;19.072;2024-03-08T14:02:02;39.97;;;15.77;;
75496;SDS011;64074;47.540;19.072;2024-03-08T14:05:11;42.72;;;17.95;;
75496;SDS011;64074;47.540;19.072;2024-03-08T14:08:26;44.63;;;20.10;;
75496;SDS011;64074;47.540;19.072;2024-03-08T14:11:41;33.60;;;16.15;;
75496;SDS011;64074;47.540;19.072;2024-03-08T14:14:53;34.72;;;15.15;;
75496;SDS011;64074;47.540;19.072;2024-03-08T14:18:19;34.23;;;15.07;;
75496;SDS011;64074;47.540;19.072;2024-03-08T14:21:35;33.28;;;15.32;;
75496;SDS011;64074;47.540;19.072;2024-03-08T14:25:03;38.38;;;16.20;;
75496;SDS011;64074;47.540;19.072;2024-03-08T14:28:14;35.80;;;14.93;;
75496;SDS011;64074;47.540;19.072;2024-03-08T14:31:38;32.10;;;14.57;;
75496;SDS011;64074;47.540;19.072;2024-03-08T14:34:56;33.03;;;14.37;;
75496;SDS011;64074;47.540;19.072;2024-03-08T14:38:09;40.63;;;17.45;;
75496;SDS011;64074;47.540;19.072;2024-03-08T14:41:14;33.92;;;15.90;;
75496;SDS011;64074;47.540;19.072;2024-03-08T14:44:21;45.20;;;18.75;;
75496;SDS011;64074;47.540;19.072;2024-03-08T14:47:35;32.58;;;14.68;;
75496;SDS011;64074;47.540;19.072;2024-03-08T14:50:48;34.20;;;15.80;;
75496;SDS011;64074;47.540;19.072;2024-03-08T14:54:18;33.58;;;15.20;;
75496;SDS011;64074;47.540;19.072;2024-03-08T14:57:26;34.40;;;15.27;;
75496;SDS011;64074;47.540;19.072;2024-03-08T15:00:34;36.17;;;16.38;;
75496;SDS011;64074;47.540;19.072;2024-03-08T15:03:42;38.97;;;16.02;;
75496;SDS011;64074;47.540;19.072;2024-03-08T15:06:52;36.23;;;15.87;;
75496;SDS011;64074;47.540;19.072;2024-03-08T15:10:02;38.58;;;16.60;;
75496;SDS011;64074;47.540;19.072;2024-03-08T15:13:22;40.42;;;15.95;;
75496;SDS011;64074;47.540;19.072;2024-03-08T15:16:37;35.17;;;16.05;;
75496;SDS011;64074;47.540;19.072;2024-03-08T15:19:54;34.53;;;15.35;;
75496;SDS011;64074;47.540;19.072;2024-03-08T15:23:15;34.47;;;14.97;;
75496;SDS011;64074;47.540;19.072;2024-03-08T15:26:32;34.83;;;15.30;;
75496;SDS011;64074;47.540;19.072;2024-03-08T15:29:55;37.17;;;16.00;;
75496;SDS011;64074;47.540;19.072;2024-03-08T15:33:07;69.75;;;34.33;;
75496;SDS011;64074;47.540;19.072;2024-03-08T15:36:16;35.85;;;15.93;;
75496;SDS011;64074;47.540;19.072;2024-03-08T15:39:25;37.97;;;14.63;;
75496;SDS011;64074;47.540;19.072;2024-03-08T15:42:35;34.45;;;14.70;;
75496;SDS011;64074;47.540;19.072;2024-03-08T15:45:49;33.92;;;15.00;;
75496;SDS011;64074;47.540;19.072;2024-03-08T15:49:04;40.30;;;15.75;;
75496;SDS011;64074;47.540;19.072;2024-03-08T15:52:24;34.25;;;14.88;;
75496;SDS011;64074;47.540;19.072;2024-03-08T15:55:45;39.63;;;15.20;;
75496;SDS011;64074;47.540;19.072;2024-03-08T15:59:15;39.42;;;16.33;;
75496;SDS011;64074;47.540;19.072;2024-03-08T16:02:23;40.47;;;15.70;;
75496;SDS011;64074;47.540;19.072;2024-03-08T16:05:34;41.53;;;15.27;;
75496;SDS011;64074;47.540;19.072;2024-03-08T16:08:41;44.13;;;15.77;;
75496;SDS011;64074;47.540;19.072;2024-03-08T16:11:48;35.20;;;15.10;;
75496;SDS011;64074;47.540;19.072;2024-03-08T16:14:56;37.15;;;15.20;;
75496;SDS011;64074;47.540;19.072;2024-03-08T16:18:07;35.65;;;14.63;;
75496;SDS011;64074;47.540;19.072;2024-03-08T16:21:28;36.95;;;16.00;;
75496;SDS011;64074;47.540;19.072;2024-03-08T16:24:43;34.90;;;14.88;;
75496;SDS011;64074;47.540;19.072;2024-03-08T16:27:47;36.73;;;16.63;;
75496;SDS011;64074;47.540;19.072;2024-03-08T16:30:56;43.20;;;17.92;;
75496;SDS011;64074;47.540;19.072;2024-03-08T16:34:11;35.95;;;15.80;;
75496;SDS011;64074;47.540;19.072;2024-03-08T16:37:39;34.85;;;15.75;;
75496;SDS011;64074;47.540;19.072;2024-03-08T16:41:13;35.03;;;15.32;;
75496;SDS011;64074;47.540;19.072;2024-03-08T16:44:23;39.13;;;16.30;;
75496;SDS011;64074;47.540;19.072;2024-03-08T16:47:41;36.70;;;16.05;;
75496;SDS011;64074;47.540;19.072;2024-03-08T16:50:45;35.75;;;15.65;;
75496;SDS011;64074;47.540;19.072;2024-03-08T16:53:52;36.20;;;15.35;;
75496;SDS011;64074;47.540;19.072;2024-03-08T16:57:05;36.05;;;16.25;;
75496;SDS011;64074;47.540;19.072;2024-03-08T17:00:18;32.40;;;14.90;;
75496;SDS011;64074;47.540;19.072;2024-03-08T17:03:36;36.70;;;15.70;;
75496;SDS011;64074;47.540;19.072;2024-03-08T17:06:58;38.88;;;17.00;;
75496;SDS011;64074;47.540;19.072;2024-03-08T17:10:08;38.28;;;15.77;;
75496;SDS011;64074;47.540;19.072;2024-03-08T17:13:31;36.08;;;15.95;;
75496;SDS011;64074;47.540;19.072;2024-03-08T17:16:45;45.57;;;19.37;;
75496;SDS011;64074;47.540;19.072;2024-03-08T17:20:06;37.08;;;16.05;;
75496;SDS011;64074;47.540;19.072;2024-03-08T17:23:26;40.08;;;17.42;;
75496;SDS011;64074;47.540;19.072;2024-03-08T17:26:53;36.40;;;16.05;;
75496;SDS011;64074;47.540;19.072;2024-03-08T17:30:10;40.40;;;17.17;;
75496;SDS011;64074;47.540;19.072;2024-03-08T17:33:42;40.97;;;16.90;;
75496;SDS011;64074;47.540;19.072;2024-03-08T17:36:58;39.50;;;16.05;;
75496;SDS011;64074;47.540;19.072;2024-03-08T17:40:17;38.42;;;16.77;;
75496;SDS011;64074;47.540;19.072;2024-03-08T17:43:38;38.38;;;16.50;;
75496;SDS011;64074;47.540;19.072;2024-03-08T17:46:59;38.90;;;16.70;;
75496;SDS011;64074;47.540;19.072;2024-03-08T17:50:26;38.43;;;17.00;;
75496;SDS011;64074;47.540;19.072;2024-03-08T17:53:37;40.53;;;17.13;;
75496;SDS011;64074;47.540;19.072;2024-03-08T17:57:04;37.67;;;16.85;;
75496;SDS011;64074;47.540;19.072;2024-03-08T18:00:22;45.05;;;17.95;;
75496;SDS011;64074;47.540;19.072;2024-03-08T18:03:45;40.65;;;17.40;;
75496;SDS011;64074;47.540;19.072;2024-03-08T18:07:08;39.20;;;16.40;;
75496;SDS011;64074;47.540;19.072;2024-03-08T18:10:28;37.97;;;16.35;;
75496;SDS011;64074;47.540;19.072;2024-03-08T18:13:52;43.30;;;17.08;;
75496;SDS011;64074;47.540;19.072;2024-03-08T18:17:12;37.08;;;16.90;;
75496;SDS011;64074;47.540;19.072;2024-03-08T18:20:27;39.13;;;16.58;;
75496;SDS011;64074;47.540;19.072;2024-03-08T18:23:39;38.10;;;15.77;;
75496;SDS011;64074;47.540;19.072;2024-03-08T18:26:49;39.40;;;16.90;;
75496;SDS011;64074;47.540;19.072;2024-03-08T18:30:00;38.88;;;17.58;;
75496;SDS011;64074;47.540;19.072;2024-03-08T18:33:29;38.20;;;16.75;;
75496;SDS011;64074;47.540;19.072;2024-03-08T18:36:45;42.00;;;17.20;;
75496;SDS011;64074;47.540;19.072;2024-03-08T18:40:01;42.73;;;18.60;;
75496;SDS011;64074;47.540;19.072;2024-03-08T18:43:32;39.85;;;17.25;;
75496;SDS011;64074;47.540;19.072;2024-03-08T18:46:44;40.42;;;17.58;;
75496;SDS011;64074;47.540;19.072;2024-03-08T18:49:53;39.80;;;17.02;;
75496;SDS011;64074;47.540;19.072;2024-03-08T18:53:04;42.60;;;17.50;;
75496;SDS011;64074;47.540;19.072;2024-03-08T18:56:17;41.93;;;17.90;;
75496;SDS011;64074;47.540;19.072;2024-03-08T18:59:28;38.90;;;17.55;;
75496;SDS011;64074;47.540;19.072;2024-03-08T19:02:35;46.05;;;18.55;;
75496;SDS011;64074;47.540;19.072;2024-03-08T19:05:45;41.55;;;17.20;;
75496;SDS011;64074;47.540;19.072;2024-03-08T19:09:10;44.47;;;18.05;;
75496;SDS011;64074;47.540;19.072;2024-03-08T19:12:46;46.37;;;19.13;;
75496;SDS011;64074;47.540;19.072;2024-03-08T19:15:54;45.85;;;18.50;;
75496;SDS011;64074;47.540;19.072;2024-03-08T19:19:07;43.78;;;18.48;;